Terminal Aerodrome Forecast
Issued by NWS

Home | Current Version | Previous Version | Graphics & Text | Print | Product List | Glossary On
Versions: 1 2 3 4 5 6 7 8 9 10 11 12 13 14 15 16 17 18 19 20 21 22 23 24 25 26 27 28 29 30 31 32 33
000
FTUS45 KBOU 231131
TAFAPA
TAF
KAPA 231131Z 2312/2412 VRB05KT P6SM FEW200
     FM231600 19010KT P6SM SCT100 BKN200
     FM231900 16012G20KT P6SM SCT100 BKN200
     FM232200 20010G18KT P6SM VCTS SCT090CB BKN180
      TEMPO 2322/2324 VRB20G32KT
     FM240400 19011KT P6SM FEW120 BKN200=

USA.gov is the U.S. government's official web portal to all federal, state and local government web resources and services.